Texas Logo

Inner Loop, TX Condo Real Estate Listings

1206 Total Real Estate Listings * Click on table heading to sort
Date Posted Property Type Style Address Price Living Area Lot Size Price/Sq Ft.
2018-11-28 Condo Mediterranean 1811 Indiana Street Houston, TX 77019 $535,000 2,690 sq. ft. 1,742 sq. ft. $199
2018-11-27 Condo Contemporary/Modern 1502 Allston Street Houston, TX 77008 $319,000 1,269 sq. ft. 1,307 sq. ft. $251
2018-11-27 Condo 1400 Hermann Drive Houston, TX 77004 $180,000 1,728 sq. ft. $104
2018-11-27 Condo 2047 Westcreek Lane Houston, TX 77027 $1,190,000 1,931 sq. ft. $616
2018-11-27 Condo 5104 Caroline Houston, TX 77004 $1,870,000 3,226 sq. ft. $580
2018-11-27 Condo 5104 Caroline Houston, TX 77004 $1,610,000 2,870 sq. ft. $561
2018-11-27 Condo Contemporary/Modern; Traditional 2110 Shearn Street Houston, TX 77007 $385,000 1,743 sq. ft. 60,113 sq. ft. $221
2018-11-27 Condo Traditional 7627 Cambridge Street Houston, TX 77054 $184,900 1,368 sq. ft. 254,826 sq. ft. $135
2018-11-27 Condo Traditional 4631 Wild Indigo Street Houston, TX 77027 $82,000 702 sq. ft. 140,263 sq. ft. $117
2018-11-27 Condo Traditional 8419 Hearth Drive Houston, TX 77054 $55,000 780 sq. ft. 644,252 sq. ft. $71
2018-11-27 Condo Traditional 850 Heights Hollow Lane Houston, TX 77007 $274,900 1,240 sq. ft. 3,485 sq. ft. $222
2018-11-27 Condo Traditional 7575 Kirby Drive Houston, TX 77030 $175,000 783 sq. ft. 109,771 sq. ft. $224
2018-11-26 Condo Traditional 2700 Bellefontaine Street Houston, TX 77025 $135,000 1,538 sq. ft. 79,715 sq. ft. $88
2018-11-26 Condo Traditional 3501 Chenevert Street Houston, TX 77004 $250,000 1,590 sq. ft. 34,412 sq. ft. $157
2018-11-26 Condo Contemporary/Modern 1762 Alta Vista Street Houston, TX 77023 $399,000 2,200 sq. ft. 8,712 sq. ft. $181
2018-11-26 Condo 6017 Memorial Houston, TX 77007 $1,899,000 3,447 sq. ft. $551
2018-11-26 Condo 6017 Memorial Houston, TX 77007 $2,170,000 3,641 sq. ft. $596
2018-11-26 Condo 2406 Tangley Houston, TX 77005 $1,540,000 2,549 sq. ft. $604
2018-11-26 Condo 2406 Tangley Houston, TX 77005 $1,880,000 2,549 sq. ft. $738
2018-11-26 Condo 1111 Studewood Street Houston, TX 77008 $699,000 1,861 sq. ft. $376
2018-11-26 Condo Traditional 734 Memorial Heights Drive Houston, TX 77007 $375,000 1,938 sq. ft. 1,742 sq. ft. $194
2018-11-26 Condo Contemporary/Modern; Traditional 1204 Bonnie Brae Houston, TX 77006 $799,900 3,239 sq. ft. 2,178 sq. ft. $247
2018-11-26 Condo Traditional 3200 Bellefontaine Street Houston, TX 77025 $309,000 1,376 sq. ft. 1,307 sq. ft. $225
2018-11-26 Condo 2205 Mckinney Street Houston, TX 77003 $219,900 940 sq. ft. $234
2018-11-26 Condo Traditional 2641 Fountain Key Boulevard Houston, TX 77008 $489,000 2,651 sq. ft. 1,742 sq. ft. $184
2018-11-25 Condo Other Style 2229 Mimosa Drive Common Houston, TX 77019 $235,000 1,314 sq. ft. 12,632 sq. ft. $179
2018-11-25 Condo Traditional 1529 Haddon Street Houston, TX 77006 $475,000 2,544 sq. ft. $187
2018-11-25 Condo Colonial; Traditional 2600 Bellefontaine Street Houston, TX 77025 $135,000 1,830 sq. ft. $74
2018-11-25 Condo Contemporary/Modern 9608 Riddlewood Lane Houston, TX 77025 $379,999 2,442 sq. ft. 1,742 sq. ft. $156
2018-11-25 Condo Traditional 309 Stratford Street Houston, TX 77006 $119,000 625 sq. ft. 11,761 sq. ft. $190
2018-11-24 Condo Traditional 2302 Brun Street Houston, TX 77019 $499,900 2,790 sq. ft. 2,614 sq. ft. $179
2018-11-24 Condo Other Style 4063 Leeland Street Houston, TX 77023 $375,000 1,990 sq. ft. $188
2018-11-23 Condo Other Style 2300 Old Spanish Trail Houston, TX 77054 $145,000 907 sq. ft. 131,987 sq. ft. $160
2018-11-23 Condo Traditional 1802 Webster Street Houston, TX 77019 $349,900 2,210 sq. ft. 1,307 sq. ft. $158
2018-11-23 Condo Traditional 1147 24th Street Houston, TX 77008 $349,900 2,132 sq. ft. 1,742 sq. ft. $164
2018-11-23 Condo Traditional 4928 Feagan Street Houston, TX 77007 $250,000 1,403 sq. ft. 1,307 sq. ft. $178
2018-11-23 Condo Traditional 3637 Wakeforest Street Houston, TX 77098 $425,000 1,900 sq. ft. 1,307 sq. ft. $224
2018-11-23 Condo Contemporary/Modern 4207 Allen Street Houston, TX 77007 $449,000 2,366 sq. ft. 2,178 sq. ft. $190
2018-11-22 Condo Contemporary/Modern 1213 Nelson Falls Lane Houston, TX 77008 $367,500 2,035 sq. ft. 1,307 sq. ft. $181
2018-11-21 Condo Traditional 4524 Lillian Street Houston, TX 77007 $425,000 2,310 sq. ft. 1,742 sq. ft. $184
2018-11-21 Condo 3711 San Felipe Street Houston, TX 77027 $325,000 904 sq. ft. $360
2018-11-21 Condo Traditional 2111 Welch Street Houston, TX 77019 $315,000 1,252 sq. ft. $252
2018-11-21 Condo Traditional 127 Roy Street Houston, TX 77007 $524,900 2,806 sq. ft. 1,742 sq. ft. $187
2018-11-21 Condo Traditional 2121 El Paseo Houston, TX 77054 $129,900 943 sq. ft. $138
2018-11-21 Condo Contemporary/Modern 1514 Ridgewood Street Houston, TX 77006 $629,900 2,511 sq. ft. 1,742 sq. ft. $251
2018-11-21 Condo Contemporary/Modern 5331 Nolda Street Houston, TX 77007 $299,000 2,155 sq. ft. 1,742 sq. ft. $139
2018-11-20 Condo Other Style 4004 Montrose Boulevard Houston, TX 77006 $339,900 1,803 sq. ft. 50,094 sq. ft. $189
2018-11-20 Condo Contemporary/Modern 1762 Alta Vista Street Houston, TX 77023 $399,000 2,200 sq. ft. 8,712 sq. ft. $181
2018-11-20 Condo Traditional 2815 Albany Street Houston, TX 77006 $420,000 2,329 sq. ft. 1,742 sq. ft. $180
2018-11-20 Condo 2727 Kirby Drive Houston, TX 77098 $1,995,000 2,987 sq. ft. $668
2018-11-20 Condo Traditional 2120 El Paseo Street Houston, TX 77054 $124,900 964 sq. ft. 175,982 sq. ft. $130
2018-11-20 Condo 21 Briar Hollow Lane Houston, TX 77027 $285,000 1,464 sq. ft. $195
2018-11-20 Condo Traditional 2111 Mcduffie Street Houston, TX 77019 $649,000 3,785 sq. ft. 2,614 sq. ft. $171
2018-11-20 Condo Traditional 1502 Sutton Street Houston, TX 77006 $285,000 1,258 sq. ft. 1,742 sq. ft. $227
2018-11-20 Condo Traditional 2203 Dorrington Street Houston, TX 77030 $280,000 1,158 sq. ft. 27,878 sq. ft. $242
2018-11-20 Condo Other Style 2701 Bellefontaine Street Houston, TX 77025 $99,000 890 sq. ft. 85,813 sq. ft. $111
2018-11-20 Condo Mediterranean 1634 Cohn Street Houston, TX 77007 $320,000 1,720 sq. ft. 1,307 sq. ft. $186
2018-11-19 Condo Traditional 4410 Blossom Street Houston, TX 77007 $399,500 2,165 sq. ft. 1,742 sq. ft. $185
2018-11-19 Condo Mediterranean 1239 22nd Street Houston, TX 77008 $429,000 2,354 sq. ft. 2,178 sq. ft. $182
2018-11-19 Condo Contemporary/Modern 108 Hutcheson Houston, TX 77003 $294,900 1,417 sq. ft. $208
2018-11-19 Condo Contemporary/Modern 110 Hutcheson Houston, TX 77003 $294,900 1,430 sq. ft. $206
2018-11-19 Condo 2802 Morrison St Street Houston, TX 77009 $225,000 1,170 sq. ft. $192
2018-11-19 Condo 2802 Morrison St Street Houston, TX 77009 $235,000 1,170 sq. ft. $201
2018-11-19 Condo 2710 Steel Street Houston, TX 77098 $2,055,000 3,489 sq. ft. $589
2018-11-19 Condo 2710 Steel Street Houston, TX 77098 $1,750,000 2,722 sq. ft. $643
2018-11-19 Condo Traditional 1334 Emancipation Street Houston, TX 77003 $365,000 2,587 sq. ft. 2,178 sq. ft. $141
2018-11-19 Condo Contemporary/Modern 2332 Commerce Street Houston, TX 77003 $389,500 2,123 sq. ft. 1,307 sq. ft. $183
2018-11-19 Condo Traditional 2120 El Paseo Street Houston, TX 77054 $94,500 588 sq. ft. 175,982 sq. ft. $161
2018-11-19 Condo Traditional 2145 Fairview Street Houston, TX 77019 $940,000 3,178 sq. ft. 3,049 sq. ft. $296
2018-11-19 Condo Traditional 835 Heights Hollow Ln Houston, TX 77007 $320,000 1,974 sq. ft. 1,307 sq. ft. $162
2018-11-19 Condo 3600 Montrose Boulevard Houston, TX 77006 $249,900 792 sq. ft. $316
2018-11-19 Condo Traditional 2475 Underwood Street Houston, TX 77030 $129,900 860 sq. ft. 324,958 sq. ft. $151
2018-11-18 Condo Contemporary/Modern 2211 Braeswood Boulevard Houston, TX 77030 $215,000 1,259 sq. ft. 162,043 sq. ft. $171
2018-11-18 Condo Contemporary/Modern 6122 Grand Boulevard Houston, TX 77021 $265,000 1,972 sq. ft. 1,307 sq. ft. $134
2018-11-18 Condo Traditional 3001 Murworth Drive Houston, TX 77025 $194,900 1,035 sq. ft. 163,350 sq. ft. $188
2018-11-18 Condo 3600 Montrose Boulevard Houston, TX 77006 $139,000 792 sq. ft. $176
2018-11-18 Condo Traditional 2601 Bellefontaine Street Houston, TX 77025 $135,000 1,287 sq. ft. 139,392 sq. ft. $105
2018-11-17 Condo Traditional 2120 El Paseo Street Houston, TX 77054 $119,750 964 sq. ft. $124
2018-11-17 Condo 1401 Calumet Street Houston, TX 77004 $410,000 1,889 sq. ft. $217
2018-11-17 Condo Contemporary/Modern 2339 Sperber Lane Houston, TX 77003 $389,900 2,148 sq. ft. $182
2018-11-17 Condo Contemporary/Modern 604 Middle Street Houston, TX 77003 $414,900 2,448 sq. ft. $169
2018-11-17 Condo Traditional 2601 Bellefontaine Street Houston, TX 77025 $172,450 1,832 sq. ft. 139,392 sq. ft. $94
2018-11-17 Condo 4521 San Felipe Houston, TX 77027 $1,300,000 2,106 sq. ft. $617
2018-11-17 Condo Contemporary/Modern 5225 Blossom Street Houston, TX 77007 $310,000 1,280 sq. ft. 1,307 sq. ft. $242
2018-11-16 Condo Traditional 8525 Hearth Drive Houston, TX 77054 $68,000 1,500 sq. ft. 644,252 sq. ft. $45
2018-11-16 Condo Contemporary/Modern 2322 Sperber Lane Houston, TX 77003 $355,000 2,006 sq. ft. 1,307 sq. ft. $177
2018-11-16 Condo Traditional 2204 Taft Street Houston, TX 77006 $350,000 1,774 sq. ft. 2,178 sq. ft. $197
2018-11-16 Condo Traditional 1723 Redwing Ridge Drive Houston, TX 77009 $259,900 1,438 sq. ft. 1,307 sq. ft. $181
2018-11-16 Condo Traditional 2222 Bancroft Street Houston, TX 77027 $519,000 2,384 sq. ft. 1,742 sq. ft. $218
2018-11-16 Condo Traditional 2006 Mason Street Houston, TX 77006 $329,000 2,157 sq. ft. 1,742 sq. ft. $153
2018-11-16 Condo Contemporary/Modern 1520 Fairview Avenue Houston, TX 77006 $314,900 1,742 sq. ft. 1,742 sq. ft. $181
2018-11-16 Condo Contemporary/Modern 2605 Calumet Street Houston, TX 77004 $290,000 2,072 sq. ft. 1,307 sq. ft. $140
2018-11-16 Condo Contemporary/Modern; Traditional 3001 Murworth Drive Houston, TX 77025 $260,000 1,357 sq. ft. 163,350 sq. ft. $192
2018-11-16 Condo Traditional 8519 Hearth Houston, TX 77054 $60,000 940 sq. ft. $64
2018-11-16 Condo Traditional 4220 Alabama Street Houston, TX 77027 $750,000 3,056 sq. ft. 2,178 sq. ft. $245
2018-11-16 Condo Traditional 2209 Morse Street Houston, TX 77019 $725,000 2,969 sq. ft. 2,614 sq. ft. $244
2018-11-16 Condo Contemporary/Modern 842 Nagle Street Houston, TX 77003 $550,000 2,648 sq. ft. $208
2018-11-16 Condo Traditional 4918 Eigel Street Houston, TX 77007 $389,000 2,535 sq. ft. 2,614 sq. ft. $153
2018-11-16 Condo Traditional 1327 Hyde Park Boulevard Houston, TX 77006 $519,000 2,933 sq. ft. 1,742 sq. ft. $177
2018-11-16 Condo Other Style 1385 Arlington Street Houston, TX 77008 $329,000 1,644 sq. ft. 39,640 sq. ft. $200
2018-11-16 Condo 1400 Hermann Drive Houston, TX 77004 $199,900 933 sq. ft. $214
2018-11-15 Condo Traditional 4242 Feagan St Houston, TX 77007 $385,000 2,278 sq. ft. 1,307 sq. ft. $169
2018-11-15 Condo 2200 Willowick Road Houston, TX 77027 $395,000 1,535 sq. ft. $257
2018-11-15 Condo Contemporary/Modern 11315 Main Street Houston, TX 77025 $219,900 1,504 sq. ft. 28,750 sq. ft. $146
2018-11-15 Condo Contemporary/Modern 3503 Mosley Houston, TX 77004 $499,900 2,306 sq. ft. 2,178 sq. ft. $217
2018-11-15 Condo French 3401 Timmons Lane Houston, TX 77027 $139,000 648 sq. ft. 43,560 sq. ft. $215
2018-11-15 Condo Traditional 2040 W Main St Houston, TX 77098 $759,000 3,290 sq. ft. 3,049 sq. ft. $231
2018-11-14 Condo Contemporary/Modern 1014 Robin Street Houston, TX 77019 $450,000 2,828 sq. ft. 1,742 sq. ft. $159
2018-11-14 Condo Contemporary/Modern 1712 Eado Point Lane Houston, TX 77003 $392,990 2,034 sq. ft. 1,307 sq. ft. $193
2018-11-14 Condo Traditional 5816 Feagan Street Houston, TX 77007 $385,000 1,932 sq. ft. 3,920 sq. ft. $199
2018-11-14 Condo Traditional 1719 Stuart Street Houston, TX 77004 $300,000 1,704 sq. ft. 1,307 sq. ft. $176
2018-11-14 Condo Traditional 1802 Dart Street Houston, TX 77007 $599,000 3,436 sq. ft. 1,742 sq. ft. $174
2018-11-14 Condo Contemporary/Modern 2628 Rusk Street Houston, TX 77003 $430,000 2,122 sq. ft. $203
2018-11-14 Condo 1010 Rosine Street Houston, TX 77019 $298,000 1,300 sq. ft. $229
2018-11-13 Condo Contemporary/Modern; Mediterranean 710 Stanford Street Houston, TX 77019 $499,000 2,428 sq. ft. 1,742 sq. ft. $206
2018-11-13 Condo Contemporary/Modern 2374 Commerce Street Houston, TX 77003 $391,400 2,050 sq. ft. 1,307 sq. ft. $191
2018-11-13 Condo Traditional 1635 Sutton Street Houston, TX 77006 $343,000 2,081 sq. ft. 1,742 sq. ft. $165
2018-11-13 Condo Contemporary/Modern 1310 Roberts Street Houston, TX 77003 $362,900 1,953 sq. ft. 2,178 sq. ft. $186
2018-11-13 Condo Contemporary/Modern 1716 Ovid Street Houston, TX 77007 $419,000 2,106 sq. ft. 1,742 sq. ft. $199
2018-11-13 Condo Contemporary/Modern 702 Clark Street Houston, TX 77020 $309,000 1,689 sq. ft. 1,307 sq. ft. $183
2018-11-13 Condo Traditional 2910 La Branch Street Houston, TX 77004 $312,000 1,814 sq. ft. 1,307 sq. ft. $172
2018-11-13 Condo Contemporary/Modern 5724 Kansas Street Houston, TX 77007 $369,000 2,568 sq. ft. 2,178 sq. ft. $144
2018-11-12 Condo Colonial 4620 Feagan Street Houston, TX 77007 $399,000 2,410 sq. ft. 1,742 sq. ft. $166
2018-11-12 Condo Traditional 2737 Houston Avenue Houston, TX 77009 $139,000 700 sq. ft. 29,621 sq. ft. $199
2018-11-12 Condo Contemporary/Modern 1145 18th Street Houston, TX 77008 $409,900 2,454 sq. ft. 2,178 sq. ft. $167
2018-11-12 Condo 505 Jackson Hill Street Houston, TX 77007 $279,000 1,325 sq. ft. $211
2018-11-12 Condo Traditional 4643 Wild Indigo Street Houston, TX 77027 $117,000 1,040 sq. ft. 166,399 sq. ft. $112
2018-11-12 Condo Contemporary/Modern 3408 La Branch Street Houston, TX 77004 $419,900 2,064 sq. ft. 1,742 sq. ft. $203
2018-11-11 Condo Traditional 2824 Bartell Drive Houston, TX 77054 $65,000 825 sq. ft. 87,120 sq. ft. $79
2018-11-11 Condo Contemporary/Modern 409 Detering Street Houston, TX 77007 $450,000 2,537 sq. ft. 1,742 sq. ft. $177
2018-11-10 Condo Traditional 3131 Cummins Street Houston, TX 77027 $123,975 620 sq. ft. 81,893 sq. ft. $200
2018-11-10 Condo Traditional 3307 Kilgore St Houston, TX 77021 $359,990 2,055 sq. ft. 3,049 sq. ft. $175
2018-11-10 Condo Contemporary/Modern 7575 Kirby Drive Houston, TX 77030 $240,000 1,208 sq. ft. 109,771 sq. ft. $199
2018-11-10 Condo 3333 Allen Parkway Houston, TX 77019 $2,100,000 3,595 sq. ft. $584
2018-11-10 Condo 505 Jackson Hill Street Houston, TX 77007 $325,000 1,325 sq. ft. $245
2018-11-10 Condo Contemporary/Modern 145 2nd Street Houston, TX 77007 $448,900 1,778 sq. ft. 3,049 sq. ft. $252
2018-11-10 Condo Traditional 10 Briar Hollow Lane Houston, TX 77027 $695,000 3,239 sq. ft. 2,614 sq. ft. $215
2018-11-10 Condo Other Style; Traditional 4015 Breakwood Drive Houston, TX 77025 $259,000 1,727 sq. ft. 2,614 sq. ft. $150
2018-11-09 Condo Mediterranean; Spanish 4710 Oakshire Drive Houston, TX 77027 $529,900 2,378 sq. ft. 1,742 sq. ft. $223
2018-11-09 Condo Traditional 3062 Holly Hall Street Houston, TX 77054 $179,800 1,600 sq. ft. 676,922 sq. ft. $112
2018-11-09 Condo Traditional 2425 Holly Hall Houston, TX 77054 $147,000 1,100 sq. ft. $134
2018-11-09 Condo Traditional 2825 Pease Street Houston, TX 77003 $308,500 1,776 sq. ft. 1,307 sq. ft. $174
2018-11-09 Condo Contemporary/Modern 445 Meadow Street Houston, TX 77020 $299,999 1,939 sq. ft. 1,742 sq. ft. $155
2018-11-09 Condo Traditional 2209 Braeswood Boulevard Houston, TX 77030 $146,500 833 sq. ft. 162,043 sq. ft. $176
2018-11-09 Condo Contemporary/Modern 1813 Hickory Street Houston, TX 77007 $420,000 2,472 sq. ft. 1,307 sq. ft. $170
2018-11-09 Condo Other Style 3258 Edloe Street Houston, TX 77027 $459,900 2,395 sq. ft. 1,307 sq. ft. $192
2018-11-09 Condo Mediterranean 5226 Kiam Street Houston, TX 77007 $415,000 2,590 sq. ft. 1,742 sq. ft. $160
2018-11-09 Condo Traditional 2111 Welch Street Houston, TX 77019 $350,000 1,505 sq. ft. 173,369 sq. ft. $233
2018-11-09 Condo 505 Jackson Hill Street Houston, TX 77007 $279,000 1,325 sq. ft. $211
2018-11-08 Condo Contemporary/Modern; Traditional 1406 Columbus Street Houston, TX 77019 $239,900 927 sq. ft. $259
2018-11-08 Condo 2121 Kirby Drive Houston, TX 77019 $5,200,000 6,895 sq. ft. $754
2018-11-08 Condo Mediterranean; Traditional 6516 Coppage Street Houston, TX 77007 $665,000 3,500 sq. ft. 1,307 sq. ft. $190
2018-11-08 Condo Traditional 1706 Mcduffie Street Houston, TX 77019 $695,000 3,184 sq. ft. 2,614 sq. ft. $218
2018-11-08 Condo Traditional 4901 Floyd Street Houston, TX 77007 $339,000 1,228 sq. ft. $276
2018-11-08 Condo Traditional 2601 Braeswood Boulevard Houston, TX 77025 $269,900 1,600 sq. ft. 258,746 sq. ft. $169
2018-11-08 Condo 1711 Old Spanish Trail Houston, TX 77054 $289,000 1,233 sq. ft. $234
2018-11-08 Condo 1711 Old Spanish Trail Houston, TX 77054 $299,000 1,233 sq. ft. $242
2018-11-08 Condo 7575 Kirby Drive Houston, TX 77030 $228,000 1,208 sq. ft. $189
2018-11-08 Condo Traditional 5503 Petty Street Houston, TX 77007 $349,900 2,312 sq. ft. 1,742 sq. ft. $151
2018-11-08 Condo Contemporary/Modern 1312 Live Oak Street Houston, TX 77003 $339,000 1,583 sq. ft. 62,726 sq. ft. $214
2018-11-07 Condo Contemporary/Modern 2605 Calumet Street Houston, TX 77004 $289,500 2,072 sq. ft. 1,307 sq. ft. $140
2018-11-07 Condo Traditional 2212 Portsmouth Street Houston, TX 77098 $468,900 2,256 sq. ft. 2,178 sq. ft. $208
2018-11-07 Condo Contemporary/Modern 6500 Calder Street Houston, TX 77007 $349,900 2,624 sq. ft. 1,742 sq. ft. $133
2018-11-07 Condo Traditional 3200 Bellefontaine Street Houston, TX 77025 $259,900 1,260 sq. ft. 1,307 sq. ft. $206
2018-11-07 Condo Contemporary/Modern 2809 Chartres Street Houston, TX 77004 $438,550 2,748 sq. ft. 2,178 sq. ft. $160
2018-11-07 Condo 2929 Buffalo Speedway Houston, TX 77098 $379,000 1,546 sq. ft. $245
2018-11-07 Condo Contemporary/Modern 7650 Springhill Street Houston, TX 77021 $179,000 1,501 sq. ft. 46,609 sq. ft. $119
2018-11-07 Condo Contemporary/Modern 5315 Petty Street Houston, TX 77007 $379,900 2,304 sq. ft. 1,742 sq. ft. $165
2018-11-07 Condo Traditional 6113 Maxie Street Houston, TX 77007 $498,000 2,590 sq. ft. 2,614 sq. ft. $192
2018-11-07 Condo 1400 Hermann Drive Houston, TX 77004 $195,900 933 sq. ft. $210
2018-11-07 Condo Traditional 4218 Childress Street Houston, TX 77005 $575,000 2,584 sq. ft. 3,049 sq. ft. $223
2018-11-06 Condo Traditional 2850 Holly Hall Street Houston, TX 77054 $185,000 1,600 sq. ft. 676,922 sq. ft. $116
2018-11-06 Condo 3711 San Felipe Street Houston, TX 77027 $795,000 1,497 sq. ft. $531
2018-11-06 Condo 3711 San Felipe Street Houston, TX 77027 $345,000 918 sq. ft. $376
2018-11-06 Condo Contemporary/Modern 224 Emerson Street Houston, TX 77006 $447,000 1,972 sq. ft. 3,049 sq. ft. $227
2018-11-06 Condo Contemporary/Modern 1011 Studemont Houston, TX 77007 $227,500 750 sq. ft. $303
2018-11-06 Condo Contemporary/Modern 1011 Studemont Houston, TX 77007 $227,500 750 sq. ft. $303
2018-11-06 Condo Contemporary/Modern 1011 Studemont Houston, TX 77007 $212,500 748 sq. ft. $284
2018-11-06 Condo Traditional 3619 Clay Street Houston, TX 77019 $499,500 2,912 sq. ft. 3,049 sq. ft. $172
2018-11-06 Condo Colonial; French 612 Westcott Street Houston, TX 77007 $415,000 2,222 sq. ft. 1,742 sq. ft. $187
2018-11-06 Condo Traditional 3131 Cummins Street Street Houston, TX 77027 $164,000 943 sq. ft. 81,893 sq. ft. $174
2018-11-05 Condo Traditional 903 Birdsall Street Houston, TX 77007 $499,000 2,342 sq. ft. 2,614 sq. ft. $213
2018-11-05 Condo Contemporary/Modern 1438 25th Street Houston, TX 77008 $354,990 1,564 sq. ft. 1,742 sq. ft. $227
2018-11-05 Condo Contemporary/Modern 1405 Hickory Street Houston, TX 77007 $515,000 2,872 sq. ft. 1,307 sq. ft. $179
2018-11-05 Condo 1711 Old Spanish Trail Trail Houston, TX 77054 $224,750 938 sq. ft. $240
2018-11-05 Condo Traditional 2202 Ann Street Houston, TX 77003 $250,000 1,216 sq. ft. 1,742 sq. ft. $206
2018-11-05 Condo 5104 Caroline Houston, TX 77004 $1,725,000 3,111 sq. ft. $554
2018-11-05 Condo 5104 Caroline Houston, TX 77004 $3,255,000 4,634 sq. ft. $702
2018-11-05 Condo Contemporary/Modern 5305 Egbert Street Houston, TX 77007 $349,900 2,244 sq. ft. 2,178 sq. ft. $156
2018-11-05 Condo Contemporary/Modern; Traditional 2904 La Branch Street Houston, TX 77004 $339,900 1,980 sq. ft. 2,614 sq. ft. $172
2018-11-05 Condo Contemporary/Modern 1223 Arthur Street Houston, TX 77019 $335,000 1,880 sq. ft. 2,178 sq. ft. $178
2018-11-05 Condo Traditional 2475 Underwood Street Houston, TX 77030 $129,900 892 sq. ft. 324,958 sq. ft. $146
2018-11-04 Condo French 1207 Timbergrove Acres Houston, TX 77008 $350,000 1,401 sq. ft. $250
2018-11-04 Condo Traditional 4633 Wild Indigo Street Houston, TX 77027 $87,900 702 sq. ft. 140,263 sq. ft. $125
2018-11-04 Condo 1010 Rosine Street Street Houston, TX 77019 $307,500 1,300 sq. ft. $237
2018-11-04 Condo Traditional 1201 Mcduffie Street Houston, TX 77019 $229,000 1,283 sq. ft. 288,367 sq. ft. $178
2018-11-04 Condo Traditional 1330 Old Spanish Trail Houston, TX 77054 $140,000 623 sq. ft. 327,571 sq. ft. $225
2018-11-03 Condo Contemporary/Modern; Traditional 2255 Braeswood Park Drive Houston, TX 77030 $199,500 1,096 sq. ft. 428,630 sq. ft. $182
2018-11-03 Condo Contemporary/Modern; Other Style 556 Bomar Street Houston, TX 77006 $425,000 2,228 sq. ft. 2,178 sq. ft. $191
2018-11-03 Condo Contemporary/Modern 7950 Stadium Drive Houston, TX 77030 $132,000 729 sq. ft. 173,804 sq. ft. $181
2018-11-02 Condo Contemporary/Modern 58 Briar Hollow Lane Houston, TX 77027 $299,000 1,265 sq. ft. 20,909 sq. ft. $236
2018-11-02 Condo Traditional 3228 Bammel Lane Lane Houston, TX 77098 $1,490,000 4,788 sq. ft. 5,227 sq. ft. $311
2018-11-02 Condo Other Style; Traditional 1984 Indiana Street Houston, TX 77019 $419,000 2,165 sq. ft. 1,742 sq. ft. $194
2018-11-02 Condo Contemporary/Modern 1982 Indiana Street Houston, TX 77019 $479,400 2,410 sq. ft. 1,742 sq. ft. $199
2018-11-02 Condo Contemporary/Modern 4314 Spencer Street Houston, TX 77007 $345,000 1,824 sq. ft. 1,742 sq. ft. $189
2018-11-02 Condo 2406 Tangley Houston, TX 77005 $1,395,000 2,655 sq. ft. $525
2018-11-02 Condo 2406 Tangley Houston, TX 77005 $1,350,000 2,549 sq. ft. $530
2018-11-02 Condo Traditional 2025 Park Street Houston, TX 77019 $610,000 3,108 sq. ft. 1,742 sq. ft. $196
2018-11-02 Condo Mediterranean 4120 Childress Street Houston, TX 77005 $450,000 2,561 sq. ft. 3,049 sq. ft. $176
2018-11-02 Condo Contemporary/Modern 1011 Studemont Houston, TX 77007 $350,000 1,206 sq. ft. $290
2018-11-02 Condo Contemporary/Modern 6304 Haskell Street Houston, TX 77007 $999,500 3,710 sq. ft. 2,614 sq. ft. $269
2018-11-02 Condo Traditional 830 Cohn Street Houston, TX 77007 $349,900 2,070 sq. ft. 1,742 sq. ft. $169
2018-11-02 Condo Contemporary/Modern 1011 Studemont Houston, TX 77007 $227,500 754 sq. ft. $302
2018-11-02 Condo English; Other Style; Traditional 310 Fargo Street Houston, TX 77006 $399,000 2,418 sq. ft. 1,742 sq. ft. $165
2018-11-02 Condo Traditional 2110 Shearn Street Houston, TX 77007 $382,500 1,743 sq. ft. 60,113 sq. ft. $219
2018-11-02 Condo Traditional 1242 Sampson Street Houston, TX 77003 $289,900 1,443 sq. ft. 1,742 sq. ft. $201
2018-11-02 Condo Other Style 4120 Spencer Street Houston, TX 77007 $315,000 1,875 sq. ft. 1,742 sq. ft. $168
2018-11-02 Condo Traditional 3809 Braeswood Boulevard Houston, TX 77025 $96,000 665 sq. ft. 40,946 sq. ft. $144
2018-11-01 Condo Contemporary/Modern 1806 Rosalie St Street Houston, TX 77004 $359,900 2,246 sq. ft. 1,307 sq. ft. $160
2018-11-01 Condo Contemporary/Modern 4437 Eigel Street Houston, TX 77007 $324,900 1,748 sq. ft. 1,742 sq. ft. $186
2018-11-01 Condo 3333 Allen Parkway Houston, TX 77019 $1,100,000 2,300 sq. ft. $478
2018-11-01 Condo Traditional 2405 Commonwealth Street Houston, TX 77006 $575,000 3,015 sq. ft. 1,307 sq. ft. $191
2018-11-01 Condo Contemporary/Modern 2420 Emancipation Avenue Houston, TX 77004 $379,000 2,412 sq. ft. 2,178 sq. ft. $157
2018-11-01 Condo 5925 Almeda Road Houston, TX 77004 $265,000 850 sq. ft. $312
2018-11-01 Condo 3333 Allen Parkway Houston, TX 77019 $665,000 1,721 sq. ft. $386
2018-11-01 Condo 3711 San Felipe Houston, TX 77027 $479,000 1,044 sq. ft. $459
2018-11-01 Condo Traditional 3300 Bellefontaine Street Houston, TX 77025 $335,900 1,308 sq. ft. 1,307 sq. ft. $257
2018-11-01 Condo Traditional 421 Emerson Street Houston, TX 77006 $145,000 966 sq. ft. 9,583 sq. ft. $150
2018-10-31 Condo Contemporary/Modern 1877 Ewing Street Houston, TX 77004 $399,000 1,920 sq. ft. 1,307 sq. ft. $208
2018-10-31 Condo Traditional 2914 Austin Street Houston, TX 77004 $399,000 2,447 sq. ft. 1,742 sq. ft. $163
2018-10-31 Condo Mediterranean 1106 Marconi Street Houston, TX 77019 $529,900 2,227 sq. ft. 1,307 sq. ft. $238
2018-10-31 Condo English 2415 San Felipe Street Houston, TX 77019 $1,895,000 4,253 sq. ft. 2,178 sq. ft. $446
2018-10-31 Condo 1419 Montrose Blvd Houston, TX 77019 $425,000 1,545 sq. ft. $275
2018-10-31 Condo Contemporary/Modern 1119 Saint Charles Street Houston, TX 77003 $317,000 1,770 sq. ft. 1,307 sq. ft. $179
2018-10-31 Condo Mediterranean 4231 Feagan Street Houston, TX 77007 $435,000 2,109 sq. ft. 1,307 sq. ft. $206
2018-10-31 Condo Traditional 307 Grand View Terrace Houston, TX 77007 $625,000 2,756 sq. ft. 2,178 sq. ft. $227
2018-10-31 Condo Contemporary/Modern 2823 Sackett Street Houston, TX 77098 $530,000 2,080 sq. ft. 3,049 sq. ft. $255
2018-10-31 Condo Mediterranean 4207 Eli Street Houston, TX 77007 $385,000 2,125 sq. ft. 1,742 sq. ft. $181
2018-10-30 Condo Contemporary/Modern 2714 Jackson Street Houston, TX 77004 $387,500 2,021 sq. ft. 1,307 sq. ft. $192
2018-10-30 Condo Traditional 2111 Welch Street Houston, TX 77019 $232,000 995 sq. ft. 173,369 sq. ft. $233
2018-10-30 Condo Traditional 4203 Childress Street Houston, TX 77005 $420,000 1,694 sq. ft. 2,614 sq. ft. $248
2018-10-30 Condo Contemporary/Modern; Mediterranean 1401 Maryland Street Houston, TX 77006 $464,900 2,263 sq. ft. 1,307 sq. ft. $205
2018-10-30 Condo Traditional 4000 Breakwood Drive Houston, TX 77025 $215,000 2,259 sq. ft. 2,614 sq. ft. $95
2018-10-30 Condo Mediterranean 2540 Prospect Street Houston, TX 77004 $310,000 2,049 sq. ft. 1,307 sq. ft. $151
2018-10-30 Condo Traditional 1604 Welch B Houston, TX 77006 $597,000 2,999 sq. ft. 2,614 sq. ft. $199
2018-10-30 Condo Contemporary/Modern 4104 Mcduffie Street Houston, TX 77098 $549,000 2,536 sq. ft. 1,742 sq. ft. $216
2018-10-30 Condo Traditional 2255 Braeswood Park Drive Houston, TX 77030 $150,000 774 sq. ft. $194
2018-10-30 Condo Split Level 5432 Crooms Street Houston, TX 77007 $375,000 2,251 sq. ft. 1,307 sq. ft. $167
2018-10-30 Condo Traditional 5503 Darling Street Houston, TX 77007 $374,000 2,348 sq. ft. 1,742 sq. ft. $159
2018-10-30 Condo Contemporary/Modern; Split Level 1389 Arlington Street Houston, TX 77008 $349,000 1,512 sq. ft. 39,640 sq. ft. $231
2018-10-29 Condo Traditional 4631 Wild Indigo Street Houston, TX 77027 $109,900 702 sq. ft. 140,263 sq. ft. $157
2018-10-29 Condo Contemporary/Modern; Traditional 58 Briar Hollow Lane Houston, TX 77027 $335,000 1,483 sq. ft. 20,909 sq. ft. $226
2018-10-29 Condo Traditional 2120 El Paseo Street Houston, TX 77054 $145,000 1,140 sq. ft. 145,055 sq. ft. $127
2018-10-29 Condo Traditional 10 Briar Hollow Lane Houston, TX 77027 $619,000 3,058 sq. ft. 2,178 sq. ft. $202
2018-10-29 Condo Traditional 7697 Cambridge Street Houston, TX 77054 $184,500 1,368 sq. ft. 254,826 sq. ft. $135
2018-10-29 Condo Traditional 8063 El Mundo Street Houston, TX 77054 $168,000 1,600 sq. ft. 676,922 sq. ft. $105
2018-10-27 Condo 1111 Hermann Drive Houston, TX 77004 $849,995 1,806 sq. ft. $471
2018-10-27 Condo Contemporary/Modern 6939 Ardmore Street Houston, TX 77054 $272,999 1,938 sq. ft. 1,307 sq. ft. $141
2018-10-27 Condo Contemporary/Modern; Other Style 2110 Shearn Street Houston, TX 77007 $304,999
2018-10-26 Condo Contemporary/Modern; French 6308 Schuler Street Houston, TX 77007 $490,000 2,103 sq. ft. 1,307 sq. ft. $233
2018-10-26 Condo Contemporary/Modern 512 Bell Houston, TX 77019 $549,900 2,575 sq. ft. $214
2018-10-26 Condo Contemporary/Modern 5802 Maxie Street Houston, TX 77007 $400,000 2,699 sq. ft. 1,742 sq. ft. $148
2018-10-26 Condo 2001 Holcombe Boulevard Houston, TX 77030 $339,000 921 sq. ft. $368
2018-10-26 Condo Traditional 4812 Labranch Street Houston, TX 77004 $319,000 1,306 sq. ft. 1,742 sq. ft. $244
2018-10-26 Condo Mediterranean; Spanish 5226 Kiam Street Houston, TX 77007 $466,000 2,541 sq. ft. 1,742 sq. ft. $183
2018-10-26 Condo Contemporary/Modern 4046 Center Street Houston, TX 77007 $289,944 1,224 sq. ft. 1,742 sq. ft. $237
2018-10-26 Condo Contemporary/Modern 2911 Helena Street Houston, TX 77006 $489,000 2,761 sq. ft. 3,485 sq. ft. $177
2018-10-26 Condo Contemporary/Modern 1406 Eberhard Street Houston, TX 77019 $719,000 3,381 sq. ft. 1,742 sq. ft. $213
2018-10-26 Condo Contemporary/Modern 1404 Eberhard Street Houston, TX 77019 $699,000 3,381 sq. ft. 1,742 sq. ft. $207
2018-10-25 Condo Traditional 59 Crain Square Boulevard Houston, TX 77025 $1,799,900 4,343 sq. ft. 2,178 sq. ft. $414
2018-10-25 Condo 2211 Briarglen Drive Houston, TX 77027 $538,000 1,483 sq. ft. $363
2018-10-25 Condo Traditional 246 Garrison Drive Houston, TX 77009 $349,951 1,559 sq. ft. $224
2018-10-25 Condo Traditional 243 Garrison Drive Houston, TX 77009 $352,110 1,559 sq. ft. $226
2018-10-25 Condo 2325 Welch Houston, TX 77019 $2,890,000 2,905 sq. ft. $995
2018-10-25 Condo Traditional 5210 Weslayan Street Houston, TX 77005 $164,950 992 sq. ft. $166
2018-10-24 Condo Traditional 8 Eaton Square Houston, TX 77027 $1,980,000 5,206 sq. ft. 4,792 sq. ft. $380
2018-10-24 Condo Contemporary/Modern 915 Nash Street Houston, TX 77019 $449,000 2,612 sq. ft. 1,307 sq. ft. $172
2018-10-24 Condo Contemporary/Modern 958 18th Street Houston, TX 77008 $394,990 2,166 sq. ft. $182
2018-10-24 Condo Contemporary/Modern 1016 18th Street Houston, TX 77008 $394,990 2,166 sq. ft. 1,742 sq. ft. $182
2018-10-24 Condo Contemporary/Modern; Traditional 4511 Eigel Street Houston, TX 77007 $323,000 1,795 sq. ft. 1,742 sq. ft. $180
2018-10-24 Condo Contemporary/Modern 940 18th Street Houston, TX 77008 $394,990 2,166 sq. ft. 1,742 sq. ft. $182
2018-10-24 Condo Traditional 2113 Kingston Street Houston, TX 77019 $1,195,000 3,920 sq. ft. 2,614 sq. ft. $305
2018-10-24 Condo 2121 Kirby Drive Houston, TX 77019 $3,295,000 4,522 sq. ft. $729
2018-10-24 Condo Contemporary/Modern; French 2516 Commonwealth Street Houston, TX 77006 $168,000 762 sq. ft. 22,216 sq. ft. $220
2018-10-24 Condo Contemporary/Modern 2922 Crawford Street Houston, TX 77004 $295,000 1,804 sq. ft. 1,307 sq. ft. $164
2018-10-24 Condo Split Level; Traditional 2902 Brompton Square Drive Houston, TX 77025 $499,000 2,257 sq. ft. 1,307 sq. ft. $221
2018-10-24 Condo Contemporary/Modern 2512 Chenevert Street Houston, TX 77004 $359,000 2,038 sq. ft. 1,742 sq. ft. $176
2018-10-23 Condo Contemporary/Modern 2204 Arabelle Houston, TX 77007 $498,000 2,266 sq. ft. 2,178 sq. ft. $220
2018-10-23 Condo Traditional 1915 Calumet Street Houston, TX 77004 $389,000 2,201 sq. ft. 1,742 sq. ft. $177
2018-10-23 Condo Other Style 2816 Bartell Drive Houston, TX 77054 $70,000 1,050 sq. ft. $67
2018-10-23 Condo Traditional 5210 Weslayan Street Houston, TX 77005 $144,900 822 sq. ft. 111,078 sq. ft. $176
2018-10-23 Condo Traditional 1602 Elgin Street Houston, TX 77004 $150,000 579 sq. ft. $259
2018-10-23 Condo Contemporary/Modern 1011 Studemont Houston, TX 77007 $219,500 754 sq. ft. $291
2018-10-23 Condo Traditional 218 8th Street Houston, TX 77007 $340,000 1,372 sq. ft. $248
2018-10-23 Condo Traditional 220 8th Street Houston, TX 77007 $320,000 1,270 sq. ft. $252
2018-10-23 Condo Contemporary/Modern 1011 Studemont Houston, TX 77007 $354,500 1,199 sq. ft. $296
2018-10-23 Condo Contemporary/Modern 1011 Studemont Houston, TX 77007 $207,500 754 sq. ft. $275
2018-10-23 Condo Traditional 7950 Stadium Drive Houston, TX 77030 $149,900 972 sq. ft. 173,804 sq. ft. $154
2018-10-23 Condo Contemporary/Modern 1011 Studemont Houston, TX 77007 $199,000 752 sq. ft. $265
2018-10-23 Condo Contemporary/Modern 2100 Huldy Street Houston, TX 77019 $320,999 2,328 sq. ft. 14,810 sq. ft. $138
2018-10-23 Condo Other Style 4001 Dallas Street Houston, TX 77023 $299,900 2,180 sq. ft. 1,307 sq. ft. $138
2018-10-22 Condo Contemporary/Modern 1509 Eberhard Street Houston, TX 77019 $749,000 2,896 sq. ft. 1,742 sq. ft. $259
2018-10-22 Condo Contemporary/Modern; Traditional 1823 Hadley Street Houston, TX 77003 $375,000 2,350 sq. ft. 1,742 sq. ft. $160
2018-10-22 Condo Mediterranean 2427 Brun Street Houston, TX 77019 $820,000 3,440 sq. ft. 3,049 sq. ft. $238
2018-10-22 Condo 2325 Welch Houston, TX 77019 $1,550,000 2,611 sq. ft. $594
2018-10-22 Condo 2325 Welch Houston, TX 77019 $1,785,000 2,671 sq. ft. $668
2018-10-22 Condo 2325 Welch Houston, TX 77019 $2,600,000 2,671 sq. ft. $973
2018-10-22 Condo Traditional 2334 Camden Drive Houston, TX 77021 $524,900 3,311 sq. ft. 3,049 sq. ft. $159
2018-10-22 Condo Contemporary/Modern 4419 Floyd Street Houston, TX 77007 $449,900 2,577 sq. ft. 1,742 sq. ft. $175
2018-10-22 Condo 5925 Almeda Road Houston, TX 77004 $229,900 748 sq. ft. $307
2018-10-21 Condo Traditional 1880 White Oak Drive Houston, TX 77009 $169,000 812 sq. ft. $208
2018-10-21 Condo Contemporary/Modern 2202 Arabelle Drive Houston, TX 77007 $498,000 2,266 sq. ft. 2,178 sq. ft. $220
2018-10-21 Condo Other Style 823 Paige Street Houston, TX 77003 $415,000 1,921 sq. ft. $216
2018-10-21 Condo Traditional 2121 El Paseo Street Houston, TX 77054 $105,000 804 sq. ft. 221,720 sq. ft. $131
2018-10-20 Condo Traditional 4305 Westheimer Road Houston, TX 77027 $500,000 1,827 sq. ft. 2,614 sq. ft. $274
2018-10-20 Condo Traditional 1016 Van Buren Street Houston, TX 77019 $399,000 2,113 sq. ft. 1,742 sq. ft. $189
2018-10-20 Condo Contemporary/Modern 58 Briar Hollow Lane Houston, TX 77027 $310,000 1,265 sq. ft. $245
2018-10-19 Condo Other Style 1209 Welch Street Houston, TX 77006 $529,000 2,388 sq. ft. 2,614 sq. ft. $222
2018-10-19 Condo Traditional 2626 Holly Hall Street Houston, TX 77054 $84,000 664 sq. ft. 104,544 sq. ft. $127
2018-10-19 Condo Georgian 2722 Mid Lane Houston, TX 77027 $549,900 2,382 sq. ft. 2,614 sq. ft. $231
2018-10-19 Condo Traditional 4041 Law Street Houston, TX 77005 $178,000 802 sq. ft. 55,321 sq. ft. $222
2018-10-19 Condo Contemporary/Modern; Traditional 1219 Kipling Street Houston, TX 77006 $599,999 2,802 sq. ft. 1,307 sq. ft. $214
2018-10-19 Condo 5925 Almeda Road Houston, TX 77004 $209,900 672 sq. ft. $312
2018-10-19 Condo Traditional 4641 Wild Indigo Street Houston, TX 77027 $89,900 880 sq. ft. 166,399 sq. ft. $102
2018-10-19 Condo Split Level; Traditional 1810 Elmen Street Houston, TX 77019 $600,000 3,784 sq. ft. 2,614 sq. ft. $159
2018-10-19 Condo Contemporary/Modern 2712 Leeland Street Houston, TX 77003 $359,900 2,090 sq. ft. 2,178 sq. ft. $172
2018-10-19 Condo Other Style 2929 Buffalo Speedway Houston, TX 77098 $109,000 456 sq. ft. 147,233 sq. ft. $239
2018-10-19 Condo Traditional 1601 Shepherd Drive Houston, TX 77019 $215,000 956 sq. ft. 343,688 sq. ft. $225
2018-10-18 Condo Traditional 2626 Holly Hall Street Houston, TX 77054 $89,900 664 sq. ft. 89,734 sq. ft. $135
2018-10-18 Condo 2200 Willowick Road Houston, TX 77027 $319,000 1,025 sq. ft. $311
2018-10-18 Condo Contemporary/Modern 902 Hutchins Street Houston, TX 77003 $519,000 2,434 sq. ft. 2,178 sq. ft. $213
2018-10-18 Condo Traditional 1320 Taft Street Houston, TX 77019 $449,000 2,256 sq. ft. 1,742 sq. ft. $199
2018-10-18 Condo 2001 Holcombe Boulevard Houston, TX 77030 $493,000 1,649 sq. ft. $299
2018-10-18 Condo Traditional 1417 Thompson Street Houston, TX 77007 $449,900 2,793 sq. ft. 1,742 sq. ft. $161
2018-10-18 Condo Contemporary/Modern; Traditional 903 Hartman Street Houston, TX 77007 $415,000 2,447 sq. ft. 2,614 sq. ft. $170
2018-10-18 Condo Traditional 7900 Stadium Drive Houston, TX 77030 $114,990 729 sq. ft. 230,868 sq. ft. $158
2018-10-17 Condo Contemporary/Modern; Other Style 5925 Almeda Road Houston, TX 77004 $225,000 757 sq. ft. 199,940 sq. ft. $297
2018-10-17 Condo Traditional 1955 Vermont Street Houston, TX 77019 $529,000 2,752 sq. ft. 1,742 sq. ft. $192
2018-10-17 Condo Traditional 1703 Driscoll Street Houston, TX 77019 $590,000 2,632 sq. ft. 2,178 sq. ft. $224
2018-10-16 Condo Traditional 1880 White Oak Drive Houston, TX 77009 $145,000 812 sq. ft. 146,362 sq. ft. $179
2018-10-16 Condo Traditional 2612 Detering Street Houston, TX 77007 $285,000 1,464 sq. ft. 1,307 sq. ft. $195
2018-10-16 Condo Contemporary/Modern 1415 Holly Street Houston, TX 77007 $389,900 2,129 sq. ft. 1,742 sq. ft. $183
2018-10-16 Condo 1111 Hermann Drive Houston, TX 77004 $840,000 2,187 sq. ft. $384
2018-10-16 Condo 2929 Buffalo Speedway Houston, TX 77098 $399,000 1,553 sq. ft. $257
2018-10-16 Condo Traditional 705 Saint Charles Street Houston, TX 77003 $329,900 1,768 sq. ft. 1,307 sq. ft. $187
2018-10-15 Condo 3433 Westheimer Houston, TX 77027 $5,500,000 11,966 sq. ft. $460
2018-10-15 Condo Traditional 2659 Fountain Key Boulevard Houston, TX 77008 $525,000 2,679 sq. ft. 3,049 sq. ft. $196
2018-10-15 Condo Traditional 2655 Fountain Key Boulevard Houston, TX 77008 $445,000 1,965 sq. ft. 1,742 sq. ft. $226
2018-10-15 Condo Traditional 2639 Fountain Key Boulevard Houston, TX 77008 $515,000 2,652 sq. ft. 1,742 sq. ft. $194
2018-10-15 Condo Traditional 2643 Fountain Key Boulevard Houston, TX 77008 $435,000 1,965 sq. ft. 1,307 sq. ft. $221
2018-10-15 Condo Traditional 2647 Fountain Key Boulevard Houston, TX 77008 $475,000 2,512 sq. ft. 1,307 sq. ft. $189
2018-10-15 Condo Traditional 2651 Fountain Key Boulevard Houston, TX 77008 $485,000 2,524 sq. ft. 1,742 sq. ft. $192
2018-10-15 Condo Traditional 37 Crain Square Boulevard Houston, TX 77025 $1,269,900 3,503 sq. ft. 1,742 sq. ft. $363
2018-10-15 Condo Traditional 5003 Nolda Street Houston, TX 77007 $364,000 2,380 sq. ft. 2,178 sq. ft. $153
2018-10-13 Condo Traditional 2121 Hepburn Street Houston, TX 77054 $115,000 844 sq. ft. 131,551 sq. ft. $136
2018-10-13 Condo Traditional 3318 Crosspark Place Houston, TX 77007 $550,000 2,548 sq. ft. 1,742 sq. ft. $216
2018-10-13 Condo Traditional 7575 Cambridge Street Houston, TX 77054 $155,000 1,104 sq. ft. 163,350 sq. ft. $140
2018-10-13 Condo 5925 Almeda Road Houston, TX 77004 $335,000 1,209 sq. ft. $277
2018-10-13 Condo Traditional 8425 Hearth Drive Houston, TX 77054 $87,900 1,092 sq. ft. 644,252 sq. ft. $80
2018-10-12 Condo Traditional 419 Marshall Street Houston, TX 77006 $172,900 846 sq. ft. 9,583 sq. ft. $204
2018-10-12 Condo Traditional 3842 Glen Arbor Drive Houston, TX 77025 $849,900 3,515 sq. ft. 2,614 sq. ft. $242
2018-10-12 Condo 1005 Shepherd Drive Houston, TX 77019 $469,900 1,914 sq. ft. $246
2018-10-12 Condo Mediterranean 3019 Kisling Street Houston, TX 77021 $399,000 1,952 sq. ft. 2,178 sq. ft. $204
2018-10-12 Condo Contemporary/Modern 5104 Scotland Street Houston, TX 77007 $359,000 2,196 sq. ft. 1,742 sq. ft. $163
2018-10-12 Condo Georgian 4040 San Felipe Street Houston, TX 77027 $160,000 930 sq. ft. 251,777 sq. ft. $172
2018-10-12 Condo Traditional 762 Worthshire Street Houston, TX 77008 $150,000 944 sq. ft. 1,742 sq. ft. $159
2018-10-12 Condo Traditional 4131 North Boulevard Park Houston, TX 77098 $695,000 3,012 sq. ft. 3,049 sq. ft. $231
2018-10-12 Condo 101 Westcott Street Houston, TX 77007 $1,475,000 2,867 sq. ft. $514
2018-10-12 Condo Traditional 8100 Cambridge Street Houston, TX 77054 $148,000 1,299 sq. ft. $114
2018-10-12 Condo Traditional 8100 Cambridge Street Houston, TX 77054 $119,000 1,050 sq. ft. $113
2018-10-12 Condo Traditional 2475 Underwood Street Houston, TX 77030 $129,000 892 sq. ft. 324,958 sq. ft. $145
2018-10-12 Condo Traditional 162 Oak Place Drive Houston, TX 77006 $469,900 2,468 sq. ft. 2,178 sq. ft. $190
2018-10-12 Condo Traditional 1536 Dian Street Houston, TX 77008 $399,990 2,544 sq. ft. 1,742 sq. ft. $157
2018-10-12 Condo Other Style 4059 Leeland Street Houston, TX 77023 $365,900 2,037 sq. ft. $180
2018-10-12 Condo Contemporary/Modern 313 Mission Lane Houston, TX 77011 $249,500 1,530 sq. ft. 1,307 sq. ft. $163
2018-10-12 Condo Contemporary/Modern 2900 Hamilton Street Houston, TX 77004 $256,995 1,819 sq. ft. 29,621 sq. ft. $141
2018-10-12 Condo Mediterranean 4736 Banning Drive Houston, TX 77027 $524,900 2,356 sq. ft. 1,742 sq. ft. $223
2018-10-11 Condo Traditional 1636 Colquitt Street Houston, TX 77006 $435,000 2,664 sq. ft. 3,049 sq. ft. $163
2018-10-11 Condo Contemporary/Modern 2630 Rusk Street Houston, TX 77003 $430,000 2,122 sq. ft. $203
2018-10-11 Condo Traditional 1433 Paige Street Houston, TX 77003 $299,900 2,078 sq. ft. 1,307 sq. ft. $144
2018-10-11 Condo Contemporary/Modern 1330 Old Spanish Trail Houston, TX 77054 $217,500 1,055 sq. ft. 327,571 sq. ft. $206
2018-10-11 Condo Contemporary/Modern; Mediterranean 2035 A Sheridan Street Houston, TX 77030 $1,099,000 4,365 sq. ft. 4,356 sq. ft. $252
2018-10-11 Condo Contemporary/Modern; Mediterranean 2035 B Sheridan Street Houston, TX 77030 $1,225,000 5,005 sq. ft. 5,663 sq. ft. $245
2018-10-11 Condo Traditional 802 Reinicke Street Houston, TX 77007 $399,900 2,574 sq. ft. 1,742 sq. ft. $155
2018-10-11 Condo Contemporary/Modern 608 Drew Street Houston, TX 77006 $424,900 2,268 sq. ft. 1,742 sq. ft. $187
2018-10-11 Condo Contemporary/Modern 1227 Buckner Street Houston, TX 77019 $337,000 1,911 sq. ft. 2,178 sq. ft. $176
2018-10-11 Condo Traditional 2425 Underwood Street Houston, TX 77030 $190,000 1,398 sq. ft. 324,958 sq. ft. $136
2018-10-11 Condo Contemporary/Modern 2826 Bartell Drive Houston, TX 77054 $44,000 525 sq. ft. 27,443 sq. ft. $84
2018-10-11 Condo Contemporary/Modern 4004 Montrose Boulevard Houston, TX 77006 $299,000 1,340 sq. ft. 50,094 sq. ft. $223
2018-10-11 Condo Contemporary/Modern; Traditional 1601 Shepherd Drive Houston, TX 77019 $185,000 798 sq. ft. 343,688 sq. ft. $232
2018-10-11 Condo Contemporary/Modern 2602 Washington Avenue Houston, TX 77007 $650,000 3,389 sq. ft. 1,742 sq. ft. $192
2018-10-10 Condo Traditional 3224 Timmons Lane Houston, TX 77027 $129,990 625 sq. ft. 79,715 sq. ft. $208
2018-10-10 Condo Contemporary/Modern; Mediterranean 2039 Sheridan Street A Houston, TX 77030 $1,165,000 4,100 sq. ft. $284
2018-10-10 Condo Traditional 6312 Hamman Street Houston, TX 77007 $374,900 2,255 sq. ft. 2,178 sq. ft. $166
2018-10-10 Condo Traditional 2255 Braeswood Park Drive Houston, TX 77030 $134,900 774 sq. ft. 428,630 sq. ft. $174
2018-10-10 Condo Traditional 1253 17th Street Houston, TX 77008 $289,000 2,025 sq. ft. 1,307 sq. ft. $143
2018-10-10 Condo Contemporary/Modern 2900 Hamilton Street Houston, TX 77004 $249,900 29,621 sq. ft.
2018-10-10 Condo Traditional 3375 Bellefontaine Street Houston, TX 77025 $555,000 2,317 sq. ft. 2,178 sq. ft. $240
2018-10-10 Condo 2520 Robinhood Street Houston, TX 77005 $269,900 1,246 sq. ft. $217
2018-10-10 Condo 3614 Montrose Boulevard Houston, TX 77006 $180,000 768 sq. ft. $234
2018-10-10 Condo Contemporary/Modern; Mediterranean; Traditional 4203 Dickson Street Houston, TX 77007 $465,000 2,679 sq. ft. 1,742 sq. ft. $174
2018-10-10 Condo Contemporary/Modern 58 Hutcheson Street Houston, TX 77003 $299,900 1,586 sq. ft. 1,307 sq. ft. $189
2018-10-10 Condo Contemporary/Modern 2111 Welch Street Houston, TX 77019 $517,000 1,806 sq. ft. 173,369 sq. ft. $286
2018-10-09 Condo Contemporary/Modern 1406 Columbus Street Houston, TX 77019 $212,999 848 sq. ft. 13,939 sq. ft. $251
2018-10-09 Condo Traditional 2829 Timmons Lane Houston, TX 77027 $184,000 884 sq. ft. 193,406 sq. ft. $208
2018-10-09 Condo 1111 Studewood Street Houston, TX 77008 $579,000 1,803 sq. ft. $321
2018-10-09 Condo Traditional 35 Hackberry Lane Houston, TX 77027 $995,000 3,871 sq. ft. 4,356 sq. ft. $257
2018-10-09 Condo Traditional 7447 Cambridge Street Houston, TX 77054 $179,950 1,181 sq. ft. 1,307 sq. ft. $152
2018-10-09 Condo Mediterranean; Traditional 6008 Glencove Street Houston, TX 77007 $749,850 3,125 sq. ft. 2,614 sq. ft. $240
2018-10-09 Condo 2207 Bancroft Street Houston, TX 77027 $769,000 1,476 sq. ft. $521
2018-10-09 Condo Contemporary/Modern 1616 Ruthven Street Houston, TX 77019 $419,900 2,020 sq. ft. 2,178 sq. ft. $208
2018-10-09 Condo Other Style 3808 Glen Arbor Drive Houston, TX 77025 $526,000 1,888 sq. ft. 2,178 sq. ft. $279
2018-10-09 Condo Contemporary/Modern 5654 Darling Street Houston, TX 77007 $475,000 2,617 sq. ft. 1,742 sq. ft. $182
2018-10-09 Condo Mediterranean 4119 Barnes Street Houston, TX 77007 $440,000 2,839 sq. ft. 1,742 sq. ft. $155
2018-10-09 Condo Contemporary/Modern 4328 Center Street Houston, TX 77007 $360,000 2,107 sq. ft. 2,178 sq. ft. $171
2018-10-09 Condo Traditional 218 Garrison Drive Houston, TX 77009 $354,284 1,423 sq. ft. 2,178 sq. ft. $249
2018-10-09 Condo Traditional 230 Garrison Drive Houston, TX 77009 $359,568 1,559 sq. ft. $231
2018-10-08 Condo English; Other Style; Traditional 738 27th Street Houston, TX 77008 $375,000 2,770 sq. ft. 3,485 sq. ft. $135
2018-10-08 Condo Contemporary/Modern; Mediterranean 2119 Sheridan Street B Houston, TX 77030 $969,000 3,369 sq. ft. 2,614 sq. ft. $288
2018-10-08 Condo 2207 Bancroft Street Houston, TX 77027 $625,000 1,220 sq. ft. $512
2018-10-08 Condo Spanish 1629 Cohn Street Houston, TX 77007 $389,900 2,482 sq. ft. 1,742 sq. ft. $157
2018-10-08 Condo 5925 Almeda Road Houston, TX 77004 $245,000 800 sq. ft. $306
2018-10-08 Condo Traditional 617 Roy Street Houston, TX 77007 $379,900 2,468 sq. ft. 1,307 sq. ft. $154
2018-10-08 Condo Contemporary/Modern; Mediterranean; Traditional 2110 Woodhead Street Houston, TX 77019 $599,900 3,454 sq. ft. 2,614 sq. ft. $174
2018-10-08 Condo Contemporary/Modern; Other Style; Traditional 224 Avondale Street Houston, TX 77006 $495,000 2,907 sq. ft. 2,178 sq. ft. $170
2018-10-08 Condo Traditional 2210 Mid Lane Houston, TX 77027 $399,000 1,485 sq. ft. $269
2018-10-08 Condo Contemporary/Modern 5802 Maxie Street Houston, TX 77007 $419,900 2,699 sq. ft. 1,742 sq. ft. $156
2018-10-07 Condo 1914 Gray Street Houston, TX 77019 $499,900 3,202 sq. ft. $156
2018-10-06 Condo Traditional 1441 East Street Houston, TX 77007 $159,500 752 sq. ft. $212
2018-10-06 Condo Contemporary/Modern 836 Nagle Street Houston, TX 77003 $634,900 2,792 sq. ft. $227
2018-10-06 Condo Georgian 5608 Kansas Street Houston, TX 77007 $349,999 1,648 sq. ft. 1,742 sq. ft. $212
2018-10-06 Condo 2200 Willowick Road Houston, TX 77027 $375,000 1,025 sq. ft. $366
2018-10-06 Condo Traditional 8055 Cambridge Street Houston, TX 77054 $118,750 888 sq. ft. 169,448 sq. ft. $134
2018-10-05 Condo Contemporary/Modern 316 Mcalpine Street Houston, TX 77003 $310,000 2,082 sq. ft. 1,307 sq. ft. $149
2018-10-05 Condo Contemporary/Modern 310 Mcalpine Street Houston, TX 77003 $310,000 2,082 sq. ft. 1,307 sq. ft. $149
2018-10-05 Condo Contemporary/Modern 2205 Mckinney Street Houston, TX 77003 $174,975 642 sq. ft. 20,038 sq. ft. $273
2018-10-05 Condo Contemporary/Modern 1153 18th Street Houston, TX 77008 $419,900 2,282 sq. ft. $184
2018-10-05 Condo Contemporary/Modern 434 Bell Houston, TX 77019 $554,900 2,575 sq. ft. $216
2018-10-05 Condo Traditional 1515 Hyde Park Boulevard Houston, TX 77006 $528,000 2,748 sq. ft. 1,742 sq. ft. $192
2018-10-05 Condo Traditional 2721 Austin Street Houston, TX 77004 $479,500 2,607 sq. ft. 2,178 sq. ft. $184
2018-10-05 Condo Traditional 2928 Alice Street Houston, TX 77054 $302,900 1,531 sq. ft. 1,742 sq. ft. $198
2018-10-05 Condo Traditional 2930 Alice Street Houston, TX 77054 $302,900 1,531 sq. ft. 1,742 sq. ft. $198
2018-10-05 Condo Traditional 2926 Alice Street Houston, TX 77054 $299,900 1,531 sq. ft. 1,742 sq. ft. $196
2018-10-05 Condo 3331 D'Amico Houston, TX 77019 $2,085,000 3,362 sq. ft. $620
2018-10-05 Condo Traditional 4514 Center Street Houston, TX 77007 $329,900 2,140 sq. ft. 1,742 sq. ft. $154
2018-10-05 Condo English; French; Georgian; Traditional 404 Saulnier Street Houston, TX 77019 $449,000 2,553 sq. ft. 1,742 sq. ft. $176
2018-10-05 Condo Contemporary/Modern; Traditional 4128 Willowbend Houston, TX 77025 $354,000 1,879 sq. ft. $188
2018-10-05 Condo Split Level; Traditional 4130 Willowbend Houston, TX 77025 $268,000 1,334 sq. ft. $201
2018-10-05 Condo Traditional 1601 Shepherd Drive Houston, TX 77019 $226,000 847 sq. ft. $267
2018-10-05 Condo Contemporary/Modern; Other Style 2324 Bissonnet Street Houston, TX 77005 $1,349,000 3,538 sq. ft. 2,178 sq. ft. $381
2018-10-05 Condo Traditional 2931 Sackett Street Houston, TX 77098 $699,000 2,712 sq. ft. 3,049 sq. ft. $258
2018-10-05 Condo Contemporary/Modern; French; Traditional 3406 12 Houston, TX 77008 $395,000 1,937 sq. ft. $204
2018-10-05 Condo Contemporary/Modern 1412 Cleveland Street Houston, TX 77019 $304,000 1,844 sq. ft. 1,742 sq. ft. $165
2018-10-05 Condo Traditional 4137 North Boulevard Park Houston, TX 77098 $660,000 2,894 sq. ft. 3,485 sq. ft. $228
2018-10-05 Condo Contemporary/Modern 26 Waugh Drive Houston, TX 77007 $424,900 2,656 sq. ft. 2,614 sq. ft. $160
2018-10-05 Condo Traditional 318 Fowler Street Houston, TX 77007 $345,000 2,067 sq. ft. 1,307 sq. ft. $167
2018-10-05 Condo Traditional 2710 Anita Street Houston, TX 77004 $230,000 1,560 sq. ft. 1,742 sq. ft. $147
2018-10-04 Condo Contemporary/Modern 1215 Summer Street Houston, TX 77007 $479,000 2,529 sq. ft. 1,742 sq. ft. $189
2018-10-04 Condo Traditional 7511 Brompton Street Houston, TX 77025 $299,000 1,944 sq. ft. 1,742 sq. ft. $154
2018-10-04 Condo 2047 Westcreek Lane Houston, TX 77027 $1,250,000 1,873 sq. ft. $667
2018-10-04 Condo Traditional 5404 Blossom Street Houston, TX 77007 $459,900 2,302 sq. ft. 2,614 sq. ft. $200
2018-10-04 Condo Traditional 311 Reinerman Street Houston, TX 77007 $379,000 2,269 sq. ft. 1,742 sq. ft. $167
2018-10-04 Condo Contemporary/Modern 3507 Mosley Court Houston, TX 77004 $299,900 1,771 sq. ft. 1,307 sq. ft. $169
2018-10-04 Condo 1400 Hermann Drive Houston, TX 77004 $155,900 932 sq. ft. $167
2018-10-04 Condo Contemporary/Modern 1011 Studemont Houston, TX 77007 $299,900 1,173 sq. ft. $256
2018-10-04 Condo Contemporary/Modern 1011 Studemont Houston, TX 77007 $237,500 754 sq. ft. $315
2018-10-04 Condo Contemporary/Modern 1011 Studemont Houston, TX 77007 $237,500 754 sq. ft. $315
2018-10-04 Condo Contemporary/Modern 1314 Paige Street Houston, TX 77003 $334,500 2,479 sq. ft. 2,178 sq. ft. $135
2018-10-03 Condo 3333 Allen Parkway Parkway Houston, TX 77019 $729,000 1,514 sq. ft. $482
2018-10-03 Condo Contemporary/Modern 343 Eado Park Houston, TX 77020 $359,990 2,026 sq. ft. 1,307 sq. ft. $178
2018-10-03 Condo Contemporary/Modern 317 Eado Park Houston, TX 77020 $369,990 1,967 sq. ft. 2,614 sq. ft. $188
2018-10-03 Condo Contemporary/Modern 313 Eado Park Houston, TX 77020 $374,990 2,219 sq. ft. 1,742 sq. ft. $169
2018-10-03 Condo Traditional 2433 North Boulevard Houston, TX 77098 $595,000 2,969 sq. ft. 2,614 sq. ft. $200
2018-10-03 Condo Contemporary/Modern 810 17th Street Houston, TX 77008 $499,990 2,592 sq. ft. 2,178 sq. ft. $193
2018-10-03 Condo Mediterranean 1717 Ridgewood Street Houston, TX 77006 $735,000 3,072 sq. ft. 1,742 sq. ft. $239
2018-10-03 Condo 3333 Allen Parkway Parkway Houston, TX 77019 $599,500 1,514 sq. ft. $396
2018-10-03 Condo 2001 Holcombe Boulevard Houston, TX 77030 $319,000 1,250 sq. ft. $255
2018-10-03 Condo Contemporary/Modern 1206 Jackson Boulevard Houston, TX 77006 $795,000 2,925 sq. ft. 2,614 sq. ft. $272
2018-10-03 Condo Traditional 1601 Shepherd Drive Houston, TX 77019 $169,900 928 sq. ft. 343,688 sq. ft. $183
2018-10-02 Condo Traditional 2219 Driscoll Street Houston, TX 77019 $727,000 3,390 sq. ft. 2,614 sq. ft. $214
2018-10-02 Condo Traditional 2750 Holly Hall Street Houston, TX 77054 $122,900 952 sq. ft. 70,132 sq. ft. $129
2018-10-02 Condo Contemporary/Modern 1051 W 15th 1/2 Street Houston, TX 77008 $374,900 1,993 sq. ft. $188
2018-10-02 Condo Traditional 2934 Virginia Street Houston, TX 77098 $769,900 3,376 sq. ft. 2,614 sq. ft. $228
2018-10-02 Condo Traditional 3511 Yupon Street Houston, TX 77006 $479,900 2,426 sq. ft. 1,307 sq. ft. $198
2018-10-02 Condo Contemporary/Modern 2728 Clay Street Houston, TX 77003 $319,000 2,124 sq. ft. 1,742 sq. ft. $150
2018-10-02 Condo Victorian 3401 Stanford Street Houston, TX 77006 $429,000 2,142 sq. ft. 1,307 sq. ft. $200
2018-10-02 Condo 2710 Steel Houston, TX 77098 $1,560,000 2,716 sq. ft. $574
2018-10-02 Condo Traditional 2255 Braeswood Park Drive Houston, TX 77030 $145,000 774 sq. ft. 428,630 sq. ft. $187
2018-10-02 Condo Contemporary/Modern; Traditional 1909 Summer Street Houston, TX 77007 $349,000 1,762 sq. ft. 1,742 sq. ft. $198
2018-10-02 Condo Traditional 2475 Underwood Street Houston, TX 77030 $135,000 860 sq. ft. 324,958 sq. ft. $157
2018-10-01 Condo Contemporary/Modern 2209 Braeswood Boulevard Houston, TX 77030 $164,900 1,177 sq. ft. 162,043 sq. ft. $140
2018-10-01 Condo Contemporary/Modern 1216 Bell Street Houston, TX 77019 $499,990 2,498 sq. ft. 2,614 sq. ft. $200
2018-10-01 Condo 2047 Westcreek Lane Houston, TX 77027 $790,000 1,376 sq. ft. $574
2018-10-01 Condo Contemporary/Modern; Other Style; Split Level; Traditional 1831 Rosalie Street Houston, TX 77004 $369,999 2,034 sq. ft. 1,742 sq. ft. $182
2018-09-30 Condo Contemporary/Modern 310 Jensen Drive Houston, TX 77003 $327,000 2,147 sq. ft. 1,307 sq. ft. $152
2018-09-30 Condo Traditional 25 Stalynn Lane Houston, TX 77027 $640,000 3,300 sq. ft. 3,049 sq. ft. $194
2018-09-28 Condo Other Style 1860 White Oak Drive Houston, TX 77009 $147,000 680 sq. ft. 72,310 sq. ft. $216
2018-09-28 Condo Traditional 1975 Indiana Street Houston, TX 77019 $499,000 2,514 sq. ft. 1,742 sq. ft. $198
2018-09-28 Condo Contemporary/Modern 2311 Crawford Street Houston, TX 77004 $390,000 2,257 sq. ft. 1,742 sq. ft. $173
2018-09-28 Condo Traditional 2842 Bellefontaine Street Houston, TX 77025 $429,000 2,184 sq. ft. 1,742 sq. ft. $196